Time;durP1;ratioP1;P1;durP2;ratioP2;P2;SDS_P1;SDS_P2;PMS_P1;PMS_P2;Temp;Humidity;BMP_temperature;BMP_pressure;BME280_temperature;BME280_humidity;BME280_pressure;Samples;Min_cycle;Max_cycle;Signal;HPM_P1;HPM_P2
2022/05/03 00:00:14;;;;;;;8.05;6.85;;;10.80;72.50;;;;;;4975599;28;20023;-75
2022/05/03 00:02:59;;;;;;;8.90;8.00;;;10.80;72.60;;;;;;4975467;28;20033;-77
2022/05/03 00:05:49;;;;;;;10.20;8.57;;;10.70;73.20;;;;;;4975405;28;20023;-77
2022/05/03 00:08:17;;;;;;;13.23;10.10;;;10.50;73.80;;;;;;4975089;28;20025;-76
2022/05/03 00:11:16;;;;;;;8.93;7.63;;;10.40;75.70;;;;;;4975348;28;20055;-75
2022/05/03 00:13:53;;;;;;;9.60;6.95;;;10.40;75.50;;;;;;4974684;28;20485;-77
2022/05/03 00:16:21;;;;;;;7.88;6.57;;;10.40;75.60;;;;;;4975048;28;20543;-77
2022/05/03 00:18:47;;;;;;;8.60;6.70;;;10.40;74.90;;;;;;4975113;28;20042;-76
2022/05/03 00:21:13;;;;;;;8.73;6.00;;;10.50;74.30;;;;;;4975263;28;20126;-76
2022/05/03 00:23:39;;;;;;;8.73;7.38;;;10.50;73.80;;;;;;4974985;28;20041;-76
2022/05/03 00:26:06;;;;;;;7.25;6.35;;;10.50;73.60;;;;;;4974926;28;20114;-77
2022/05/03 00:28:32;;;;;;;8.40;6.30;;;10.50;73.50;;;;;;4974781;28;20122;-77
2022/05/03 00:31:00;;;;;;;6.63;5.90;;;10.50;73.30;;;;;;4974888;28;20023;-76
2022/05/03 00:33:29;;;;;;;8.07;6.53;;;10.50;73.20;;;;;;4974989;28;20027;-77
2022/05/03 00:35:54;;;;;;;7.55;6.60;;;10.50;73.20;;;;;;4974783;28;20030;-77
2022/05/03 00:38:20;;;;;;;8.40;6.43;;;10.50;73.50;;;;;;4974481;28;20050;-77
2022/05/03 00:41:00;;;;;;;7.32;6.10;;;10.50;73.60;;;;;;4974684;28;20027;-77
2022/05/03 00:47:10;;;;;;;7.85;6.90;;;10.50;73.70;;;;;;4976155;28;20041;-77
2022/05/03 00:50:20;;;;;;;10.23;8.05;;;10.50;73.60;;;;;;4974553;28;20031;-77
2022/05/03 00:53:15;;;;;;;8.65;7.43;;;10.50;73.50;;;;;;4990793;28;20026;-77
2022/05/03 00:55:55;;;;;;;8.70;7.70;;;10.50;73.50;;;;;;4973380;28;20039;-77
2022/05/03 00:59:06;;;;;;;8.43;6.28;;;10.40;73.50;;;;;;4974499;28;20050;-79
2022/05/03 01:01:51;;;;;;;9.98;6.78;;;10.30;73.70;;;;;;4974290;28;20077;-77
2022/05/03 01:04:59;;;;;;;12.63;7.57;;;10.30;73.90;;;;;;4974352;28;20086;-77
2022/05/03 01:07:30;;;;;;;10.63;8.05;;;10.20;73.80;;;;;;4974299;28;20027;-77
2022/05/03 01:09:59;;;;;;;11.70;9.10;;;10.10;73.90;;;;;;4974390;28;20473;-77
2022/05/03 01:12:44;;;;;;;10.82;8.65;;;10.10;74.10;;;;;;4974314;28;20466;-77
2022/05/03 01:15:15;;;;;;;12.25;9.93;;;10.20;74.20;;;;;;4974341;28;20035;-77
2022/05/03 01:17:45;;;;;;;11.45;8.63;;;10.10;74.20;;;;;;4974158;28;20474;-77
2022/05/03 01:20:38;;;;;;;9.25;7.70;;;10.10;74.20;;;;;;4973858;28;20031;-77
2022/05/03 01:23:24;;;;;;;9.88;7.00;;;10.10;74.10;;;;;;4973715;28;20018;-77
2022/05/03 01:26:06;;;;;;;8.02;6.80;;;10.10;74.30;;;;;;4974071;28;20034;-77
2022/05/03 01:29:06;;;;;;;7.57;6.78;;;10.00;74.60;;;;;;4973802;28;20052;-77
2022/05/03 01:31:32;;;;;;;9.88;6.65;;;10.00;74.70;;;;;;4950073;28;20038;-77
2022/05/03 01:34:01;;;;;;;11.20;6.72;;;10.00;74.80;;;;;;4973789;28;20027;-77
2022/05/03 01:36:45;;;;;;;9.20;7.10;;;10.00;74.80;;;;;;4973860;28;20076;-77
2022/05/03 01:39:28;;;;;;;7.10;6.10;;;10.00;74.90;;;;;;4973731;28;20125;-77
2022/05/03 01:42:43;;;;;;;6.97;5.65;;;10.00;74.60;;;;;;4973520;28;20378;-78
2022/05/03 01:45:10;;;;;;;7.05;5.80;;;10.00;74.20;;;;;;4943616;28;20034;-77
2022/05/03 01:48:03;;;;;;;6.85;5.85;;;10.00;74.20;;;;;;4973404;28;20422;-77
2022/05/03 01:50:41;;;;;;;8.70;6.88;;;10.00;74.30;;;;;;4973389;28;20385;-77
2022/05/03 01:53:45;;;;;;;9.43;6.30;;;9.90;74.80;;;;;;4973311;28;20389;-77
2022/05/03 01:56:14;;;;;;;7.88;6.38;;;9.90;74.70;;;;;;4972922;28;20552;-77
2022/05/03 01:59:14;;;;;;;7.22;6.00;;;9.90;74.80;;;;;;4973015;28;20504;-77
2022/05/03 02:01:41;;;;;;;7.90;6.10;;;9.90;74.90;;;;;;4955984;28;20520;-77
2022/05/03 02:04:28;;;;;;;6.68;5.85;;;9.80;75.00;;;;;;4956164;28;20030;-77
2022/05/03 02:07:07;;;;;;;6.43;5.82;;;9.80;75.30;;;;;;4956158;28;20493;-77
2022/05/03 02:09:58;;;;;;;10.20;7.40;;;9.80;75.60;;;;;;4956291;28;20023;-77
2022/05/03 02:12:25;;;;;;;7.63;6.47;;;9.70;76.20;;;;;;4956044;28;20513;-78
2022/05/03 02:14:53;;;;;;;8.50;7.00;;;9.60;76.70;;;;;;4955899;28;20054;-77
2022/05/03 02:17:42;;;;;;;7.55;6.40;;;9.60;77.10;;;;;;4955804;28;20105;-77
2022/05/03 02:20:30;;;;;;;7.72;6.57;;;9.50;77.00;;;;;;4956082;28;20033;-77
2022/05/03 02:23:13;;;;;;;8.95;6.85;;;9.50;77.00;;;;;;4955916;28;20030;-78
2022/05/03 02:26:08;;;;;;;7.72;6.50;;;9.50;77.20;;;;;;4955742;28;20035;-78
2022/05/03 02:29:03;;;;;;;8.50;6.93;;;9.50;77.40;;;;;;4955880;28;20189;-77
2022/05/03 02:31:51;;;;;;;10.23;6.60;;;9.50;77.40;;;;;;4956168;28;20033;-77
2022/05/03 02:34:49;;;;;;;11.55;6.97;;;9.40;77.50;;;;;;4973523;28;20053;-77
2022/05/03 02:37:20;;;;;;;9.32;6.88;;;9.40;77.70;;;;;;4986153;28;20025;-77
2022/05/03 02:40:11;;;;;;;10.18;6.93;;;9.40;77.70;;;;;;4996176;28;20019;-77
2022/05/03 02:42:37;;;;;;;7.95;6.03;;;9.40;77.60;;;;;;4990306;28;20045;-77
2022/05/03 02:45:05;;;;;;;9.30;6.70;;;9.40;77.50;;;;;;4992436;28;20027;-76
2022/05/03 02:47:42;;;;;;;9.35;6.70;;;9.50;77.60;;;;;;4979919;28;20394;-77
2022/05/03 02:50:26;;;;;;;10.43;7.03;;;9.50;77.30;;;;;;4974123;28;20157;-77
2022/05/03 02:53:23;;;;;;;7.80;6.45;;;9.50;77.30;;;;;;4972861;28;20046;-77
2022/05/03 02:55:58;;;;;;;9.55;7.00;;;9.40;77.20;;;;;;4989200;28;20077;-77
2022/05/03 02:59:01;;;;;;;8.93;6.43;;;9.40;77.60;;;;;;4972990;28;20035;-76
2022/05/03 03:01:59;;;;;;;8.30;6.60;;;9.40;77.60;;;;;;4972962;28;20062;-76
2022/05/03 03:04:45;;;;;;;7.95;7.00;;;9.40;77.70;;;;;;4972652;28;20054;-77
2022/05/03 03:07:17;;;;;;;13.38;8.38;;;9.40;77.80;;;;;;4972814;28;20058;-76
2022/05/03 03:09:51;;;;;;;8.73;7.18;;;9.40;78.10;;;;;;4976583;28;20393;-76
2022/05/03 03:12:54;;;;;;;12.67;8.57;;;9.30;78.40;;;;;;4976507;28;20027;-77
2022/05/03 03:15:29;;;;;;;13.32;8.45;;;9.30;78.90;;;;;;4976250;28;20572;-76
2022/05/03 03:17:57;;;;;;;11.43;8.70;;;9.30;79.20;;;;;;4976383;28;20046;-76
2022/05/03 03:20:28;;;;;;;14.27;10.52;;;9.30;79.10;;;;;;4976547;28;20074;-76
2022/05/03 03:22:55;;;;;;;17.30;12.00;;;9.30;78.90;;;;;;4976299;28;20362;-76
2022/05/03 03:25:21;;;;;;;20.33;11.00;;;9.20;78.90;;;;;;4975960;28;20034;-76
2022/05/03 03:27:51;;;;;;;9.90;8.68;;;9.20;79.20;;;;;;4975873;28;20029;-77
2022/05/03 03:30:17;;;;;;;12.88;7.63;;;9.10;79.60;;;;;;4975839;28;20027;-77
2022/05/03 03:32:50;;;;;;;9.50;7.75;;;9.00;79.70;;;;;;4976073;28;20088;-76
2022/05/03 03:35:19;;;;;;;9.73;8.23;;;9.00;79.90;;;;;;4975944;28;20022;-76
2022/05/03 03:37:46;;;;;;;9.25;7.15;;;9.10;79.80;;;;;;4975292;28;20047;-77
2022/05/03 03:40:13;;;;;;;13.73;7.43;;;9.20;79.40;;;;;;4975618;28;20389;-78
2022/05/03 03:42:41;;;;;;;8.50;6.95;;;9.20;79.00;;;;;;4975526;28;20027;-77
2022/05/03 03:45:11;;;;;;;7.18;6.47;;;9.20;78.70;;;;;;4975732;28;20031;-77
2022/05/03 03:47:42;;;;;;;10.02;7.43;;;9.20;78.40;;;;;;4975653;28;20034;-76
2022/05/03 03:50:08;;;;;;;11.82;7.95;;;9.20;78.20;;;;;;4975510;28;20417;-77
2022/05/03 03:52:35;;;;;;;9.98;8.13;;;9.10;78.20;;;;;;4975962;28;20027;-77
2022/05/03 03:55:05;;;;;;;11.90;8.82;;;9.10;79.10;;;;;;4975443;28;20023;-76
2022/05/03 03:57:31;;;;;;;9.73;8.25;;;9.10;78.30;;;;;;4975022;28;20030;-76
2022/05/03 04:00:02;;;;;;;14.18;8.15;;;9.10;78.70;;;;;;4975602;28;20030;-76
2022/05/03 04:02:28;;;;;;;11.50;9.07;;;9.10;78.70;;;;;;4975310;28;20173;-76
2022/05/03 04:04:54;;;;;;;14.93;9.80;;;9.00;78.90;;;;;;4975501;28;20509;-76
2022/05/03 04:07:20;;;;;;;12.50;9.23;;;9.00;79.40;;;;;;4975068;28;20056;-77
2022/05/03 04:09:46;;;;;;;13.27;9.00;;;9.00;80.30;;;;;;4975551;28;20035;-77
2022/05/03 04:12:12;;;;;;;13.18;9.98;;;8.90;79.60;;;;;;4975450;28;20118;-77
2022/05/03 04:14:38;;;;;;;12.65;10.02;;;9.00;79.70;;;;;;4975139;28;20054;-77
2022/05/03 04:17:03;;;;;;;14.77;10.73;;;9.00;80.60;;;;;;4974929;28;20038;-77
2022/05/03 04:19:29;;;;;;;14.38;10.40;;;9.00;80.00;;;;;;4973975;28;20062;-77
2022/05/03 04:21:55;;;;;;;13.50;9.75;;;9.00;80.30;;;;;;4975172;28;20473;-78
2022/05/03 04:24:20;;;;;;;12.45;9.73;;;8.90;80.60;;;;;;4976606;28;20031;-79
2022/05/03 04:26:46;;;;;;;13.60;11.02;;;9.00;80.80;;;;;;4976496;28;20027;-77
2022/05/03 04:29:12;;;;;;;14.80;10.18;;;8.90;81.20;;;;;;4975086;28;20465;-78
2022/05/03 04:31:37;;;;;;;18.83;10.63;;;9.00;81.40;;;;;;4975004;28;20026;-78
2022/05/03 04:34:04;;;;;;;11.73;10.02;;;9.00;81.30;;;;;;4974931;28;20023;-77
2022/05/03 04:36:32;;;;;;;14.25;9.23;;;9.10;81.20;;;;;;4974505;28;20035;-77
2022/05/03 04:38:57;;;;;;;13.00;10.23;;;9.10;81.00;;;;;;4975374;28;20057;-77
2022/05/03 04:41:23;;;;;;;13.90;9.93;;;9.20;80.80;;;;;;4974467;28;20019;-77
2022/05/03 04:43:50;;;;;;;14.00;10.40;;;9.30;80.60;;;;;;4974969;28;20034;-77
2022/05/03 04:46:15;;;;;;;14.73;11.10;;;9.30;80.20;;;;;;4974955;28;20094;-77
2022/05/03 04:48:41;;;;;;;13.73;10.57;;;9.40;79.90;;;;;;4974412;28;20199;-77
2022/05/03 04:51:16;;;;;;;13.05;10.18;;;9.40;79.80;;;;;;4974518;28;20031;-76
2022/05/03 04:53:41;;;;;;;14.88;10.52;;;9.40;80.10;;;;;;4974297;28;20030;-76
2022/05/03 04:56:07;;;;;;;14.63;10.43;;;9.40;80.00;;;;;;4974189;28;20496;-80
2022/05/03 04:58:32;;;;;;;17.45;10.73;;;9.50;79.70;;;;;;4974214;28;20093;-79
2022/05/03 05:00:58;;;;;;;16.65;11.20;;;9.50;79.50;;;;;;4974295;28;20030;-76
2022/05/03 05:03:24;;;;;;;17.67;10.95;;;9.60;79.50;;;;;;4974250;28;20504;-77
2022/05/03 05:05:49;;;;;;;15.95;11.95;;;9.60;79.40;;;;;;4973809;28;20043;-76
2022/05/03 05:08:15;;;;;;;14.95;11.65;;;9.60;79.40;;;;;;4973429;28;20118;-76
2022/05/03 05:10:40;;;;;;;14.13;10.73;;;9.50;79.80;;;;;;4974689;28;20058;-77
2022/05/03 05:13:06;;;;;;;15.77;11.93;;;9.60;79.70;;;;;;4974139;28;20090;-80
2022/05/03 05:15:31;;;;;;;12.07;10.23;;;9.70;79.60;;;;;;4974000;28;20027;-78
2022/05/03 05:18:00;;;;;;;19.92;11.90;;;9.80;79.40;;;;;;4973809;28;20081;-77
2022/05/03 05:20:26;;;;;;;20.50;12.35;;;9.90;79.00;;;;;;4973946;28;20110;-77
2022/05/03 05:22:52;;;;;;;13.88;10.13;;;9.90;78.80;;;;;;4973333;28;20118;-78
2022/05/03 05:25:18;;;;;;;15.70;11.27;;;9.90;78.60;;;;;;4973478;28;20030;-78
2022/05/03 05:27:44;;;;;;;15.13;11.18;;;10.00;78.60;;;;;;4973884;28;20031;-79
2022/05/03 05:30:10;;;;;;;12.70;10.45;;;10.00;78.80;;;;;;4972820;28;20382;-77
2022/05/03 05:32:37;;;;;;;13.52;10.27;;;10.20;78.60;;;;;;4972918;28;20369;-79
2022/05/03 05:35:04;;;;;;;12.48;9.15;;;10.20;78.20;;;;;;4973070;28;20082;-79
2022/05/03 05:37:33;;;;;;;16.75;10.73;;;10.50;77.90;;;;;;4972959;28;20133;-77
2022/05/03 05:39:59;;;;;;;13.25;9.52;;;10.60;77.30;;;;;;4973653;28;20033;-81
2022/05/03 05:42:26;;;;;;;14.70;9.93;;;10.70;76.90;;;;;;4974737;28;20450;-81
2022/05/03 05:44:52;;;;;;;17.83;10.82;;;10.90;76.70;;;;;;4974288;28;20073;-79
2022/05/03 05:47:18;;;;;;;10.43;8.88;;;11.00;76.20;;;;;;4974809;28;20042;-81
2022/05/03 05:49:44;;;;;;;15.02;9.35;;;11.10;75.90;;;;;;4987413;28;20031;-77
2022/05/03 05:54:54;;;;;;;15.10;10.73;;;11.40;75.20;;;;;;4997924;28;20041;-79
2022/05/03 05:57:20;;;;;;;14.07;11.32;;;11.50;74.70;;;;;;4996535;28;20047;-80
2022/05/03 05:59:46;;;;;;;15.48;10.57;;;11.60;74.30;;;;;;4973351;28;20023;-78
2022/05/03 06:02:11;;;;;;;13.30;10.52;;;11.80;73.80;;;;;;4972840;28;20389;-76
2022/05/03 06:04:37;;;;;;;20.45;10.88;;;11.80;73.50;;;;;;4973238;28;20054;-78
2022/05/03 06:07:03;;;;;;;11.98;9.77;;;11.90;73.30;;;;;;4973203;28;20073;-78
2022/05/03 06:09:28;;;;;;;12.93;9.43;;;12.10;73.40;;;;;;4972534;28;20138;-79
2022/05/03 06:11:54;;;;;;;12.25;9.25;;;12.20;73.00;;;;;;4972807;28;20015;-79
2022/05/03 06:14:20;;;;;;;14.20;8.40;;;12.20;73.10;;;;;;4972741;28;20394;-79
2022/05/03 06:16:50;;;;;;;11.90;8.60;;;12.20;73.20;;;;;;4972782;28;20027;-75
2022/05/03 06:19:17;;;;;;;13.05;6.85;;;12.30;73.30;;;;;;4972904;28;20490;-79
2022/05/03 06:21:43;;;;;;;11.95;9.38;;;12.50;79.00;;;;;;4972606;28;20030;-78
2022/05/03 06:24:10;;;;;;;14.77;10.10;;;12.80;75.50;;;;;;4973898;28;20421;-78
2022/05/03 06:26:35;;;;;;;15.02;9.52;;;13.00;72.60;;;;;;4972784;28;20029;-79
2022/05/03 06:29:06;;;;;;;14.23;8.68;;;13.30;72.00;;;;;;4974225;28;20161;-80
2022/05/03 06:31:33;;;;;;;9.40;7.68;;;13.70;70.60;;;;;;4973026;28;20437;-79
2022/05/03 06:34:15;;;;;;;75.43;20.65;;;14.00;69.10;;;;;;4989292;28;20019;-78
2022/05/03 06:37:13;;;;;;;17.95;9.02;;;14.20;68.50;;;;;;4973615;28;20082;-80
2022/05/03 06:39:41;;;;;;;14.30;7.82;;;14.40;67.10;;;;;;4974617;28;20061;-83
2022/05/03 06:42:54;;;;;;;10.13;6.70;;;14.50;67.70;;;;;;4978153;28;20023;-81
2022/05/03 06:45:44;;;;;;;10.80;7.50;;;14.50;67.10;;;;;;4977547;28;20022;-82
2022/05/03 06:48:12;;;;;;;6.70;5.72;;;14.70;66.70;;;;;;4993283;28;20027;-80
2022/05/03 06:50:38;;;;;;;8.40;6.45;;;14.70;66.20;;;;;;4978429;28;20027;-81
2022/05/03 06:53:04;;;;;;;5.70;5.07;;;14.70;66.00;;;;;;4979454;28;20030;-80
2022/05/03 06:55:31;;;;;;;6.45;5.82;;;14.70;66.00;;;;;;4976688;28;20026;-80
2022/05/03 06:57:56;;;;;;;7.13;6.13;;;14.80;65.50;;;;;;4976761;28;20037;-80
2022/05/03 07:00:22;;;;;;;8.20;7.03;;;14.80;65.70;;;;;;4976374;28;20368;-79
2022/05/03 07:02:47;;;;;;;8.15;6.93;;;14.90;64.10;;;;;;4976046;28;20077;-79
2022/05/03 07:05:13;;;;;;;8.52;7.25;;;15.10;65.40;;;;;;4992582;28;20389;-80
2022/05/03 07:07:39;;;;;;;7.63;6.70;;;15.20;63.70;;;;;;4976388;28;20058;-79
2022/05/03 07:10:05;;;;;;;11.10;8.35;;;15.40;62.20;;;;;;4976128;28;20027;-80
2022/05/03 07:12:32;;;;;;;8.70;7.57;;;15.40;61.90;;;;;;4975997;28;20130;-80
2022/05/03 07:15:04;;;;;;;10.77;7.85;;;15.30;63.70;;;;;;4976063;28;20118;-79
2022/05/03 07:23:01;;;;;;;10.88;7.55;;;15.40;62.70;;;;;;4977629;28;19917;-79
2022/05/03 07:25:26;;;;;;;11.43;8.07;;;15.70;61.70;;;;;;4975890;28;20019;-79
2022/05/03 07:27:52;;;;;;;8.63;6.70;;;15.70;61.60;;;;;;4975786;28;20118;-80
2022/05/03 07:30:18;;;;;;;11.88;7.90;;;15.70;61.50;;;;;;4975900;28;20018;-80
2022/05/03 07:32:45;;;;;;;10.70;7.20;;;15.90;60.60;;;;;;4975777;28;20046;-80
2022/05/03 07:35:12;;;;;;;7.43;6.65;;;16.00;60.90;;;;;;4975653;28;20026;-79
2022/05/03 07:37:39;;;;;;;12.98;7.25;;;16.20;60.00;;;;;;4975373;28;20098;-78
2022/05/03 07:40:07;;;;;;;11.13;7.20;;;16.30;59.30;;;;;;4975783;28;20121;-79
2022/05/03 07:42:33;;;;;;;10.07;7.32;;;16.40;59.70;;;;;;4975608;28;20062;-79
2022/05/03 07:44:58;;;;;;;9.68;6.90;;;16.50;59.00;;;;;;4975800;28;20031;-78
2022/05/03 07:47:24;;;;;;;10.57;8.05;;;16.50;59.20;;;;;;4975634;28;20418;-78
2022/05/03 07:49:50;;;;;;;11.07;7.55;;;16.50;60.00;;;;;;4975528;28;20137;-78
2022/05/03 07:52:16;;;;;;;10.60;7.70;;;16.40;59.80;;;;;;4975720;28;20045;-78
2022/05/03 07:54:43;;;;;;;7.88;7.07;;;16.40;60.00;;;;;;4975247;28;20094;-78
2022/05/03 07:57:10;;;;;;;12.55;8.60;;;16.40;60.20;;;;;;4975651;28;20191;-79
2022/05/03 07:59:35;;;;;;;10.27;8.48;;;16.50;59.70;;;;;;4975447;28;20034;-79
2022/05/03 08:02:02;;;;;;;12.85;8.50;;;16.60;58.10;;;;;;4975419;28;20023;-78
2022/05/03 08:04:28;;;;;;;10.23;8.30;;;16.70;58.20;;;;;;4975351;28;20031;-78
2022/05/03 08:06:53;;;;;;;14.30;9.05;;;16.60;58.50;;;;;;4975583;28;20023;-78
2022/05/03 08:09:19;;;;;;;13.07;8.82;;;16.40;58.60;;;;;;4975469;28;20556;-80
2022/05/03 08:11:45;;;;;;;12.27;8.88;;;16.30;59.50;;;;;;4975286;28;20069;-80
2022/05/03 08:14:11;;;;;;;11.48;8.32;;;16.20;60.40;;;;;;4975413;28;20385;-78
2022/05/03 08:16:38;;;;;;;13.85;9.82;;;16.10;60.80;;;;;;4975299;28;20031;-79
2022/05/03 08:19:04;;;;;;;10.90;8.07;;;15.90;61.70;;;;;;4974996;28;20073;-80
2022/05/03 08:21:32;;;;;;;14.07;9.68;;;15.70;62.40;;;;;;4976619;28;20149;-81
2022/05/03 08:23:59;;;;;;;14.32;8.93;;;15.60;62.50;;;;;;4975464;28;20023;-81
2022/05/03 08:26:24;;;;;;;9.50;7.93;;;15.50;63.40;;;;;;4976219;28;20062;-80
2022/05/03 08:28:50;;;;;;;11.02;8.05;;;15.50;62.40;;;;;;4975573;28;20616;-80
2022/05/03 08:31:16;;;;;;;11.88;7.63;;;15.60;62.20;;;;;;4975080;28;20031;-81
2022/05/03 08:33:43;;;;;;;13.15;6.97;;;15.70;61.50;;;;;;4974832;28;20018;-78
2022/05/03 08:36:09;;;;;;;10.60;7.20;;;15.70;61.60;;;;;;4975206;28;20030;-80
2022/05/03 08:44:03;;;;;;;9.25;7.70;;;15.60;62.20;;;;;;4976051;28;20049;-80
2022/05/03 08:46:31;;;;;;;11.32;7.57;;;15.60;62.20;;;;;;4974254;28;20481;-79
2022/05/03 08:49:00;;;;;;;7.80;6.43;;;15.70;62.20;;;;;;4973889;28;20041;-80
2022/05/03 08:51:29;;;;;;;10.85;7.35;;;16.00;61.90;;;;;;4974342;28;20493;-80
2022/05/03 08:53:55;;;;;;;9.77;7.65;;;16.10;61.80;;;;;;4973936;28;20035;-78
2022/05/03 08:56:21;;;;;;;9.20;6.50;;;16.30;61.30;;;;;;4973833;28;20030;-78
2022/05/03 08:58:48;;;;;;;10.73;7.10;;;16.60;60.50;;;;;;4973899;28;20401;-78
2022/05/03 09:01:14;;;;;;;10.98;6.78;;;16.70;57.90;;;;;;4973881;28;20029;-78
2022/05/03 09:03:39;;;;;;;13.23;5.53;;;16.80;57.90;;;;;;4974292;28;20085;-80
2022/05/03 09:06:06;;;;;;;7.00;5.50;;;17.10;57.70;;;;;;4973392;28;20035;-79
2022/05/03 09:08:33;;;;;;;7.82;5.57;;;17.30;55.70;;;;;;4974055;28;20073;-80
2022/05/03 09:10:59;;;;;;;8.18;6.22;;;17.30;55.10;;;;;;4973779;28;20046;-80
2022/05/03 09:13:28;;;;;;;8.23;5.93;;;17.30;54.70;;;;;;4974045;28;20492;-79
2022/05/03 09:16:08;;;;;;;10.85;6.13;;;17.10;54.50;;;;;;4974174;28;20027;-78
2022/05/03 09:18:34;;;;;;;8.52;5.40;;;17.00;55.40;;;;;;4974188;28;20038;-79
2022/05/03 09:23:50;;;;;;;7.03;5.00;;;16.80;55.60;;;;;;4975344;28;20070;-78
2022/05/03 09:26:24;;;;;;;6.70;5.97;;;16.80;55.80;;;;;;4975096;28;20022;-79
2022/05/03 09:28:51;;;;;;;9.18;6.10;;;16.80;56.60;;;;;;4973970;28;20533;-79
2022/05/03 09:31:30;;;;;;;10.70;6.47;;;16.80;56.70;;;;;;4973871;28;20027;-79
2022/05/03 09:33:57;;;;;;;10.63;7.65;;;16.70;57.30;;;;;;4973539;28;20117;-78
2022/05/03 09:36:23;;;;;;;10.73;6.80;;;16.80;57.60;;;;;;4973584;28;20066;-78
2022/05/03 09:38:51;;;;;;;7.97;6.82;;;16.90;57.10;;;;;;4973596;28;20050;-77
2022/05/03 09:41:17;;;;;;;11.60;7.05;;;16.90;57.50;;;;;;4973787;28;20023;-77
2022/05/03 09:44:04;;;;;;;10.90;7.45;;;17.00;57.70;;;;;;4974835;28;20027;-78
2022/05/03 09:46:31;;;;;;;11.40;7.25;;;17.10;57.40;;;;;;4973474;28;20085;-78
2022/05/03 09:48:57;;;;;;;9.73;7.00;;;17.10;57.60;;;;;;4972935;28;20026;-78
2022/05/03 09:51:23;;;;;;;11.38;7.28;;;16.90;57.40;;;;;;4973192;28;20436;-79
2022/05/03 09:53:56;;;;;;;11.13;7.00;;;16.80;57.60;;;;;;4972894;28;20049;-78
2022/05/03 09:56:25;;;;;;;8.98;6.68;;;16.70;58.30;;;;;;4972998;28;20034;-78
2022/05/03 09:59:05;;;;;;;10.77;6.10;;;16.70;57.90;;;;;;4973061;28;20035;-78
2022/05/03 10:01:32;;;;;;;10.10;5.70;;;16.60;57.90;;;;;;4973057;28;20311;-78
2022/05/03 10:03:58;;;;;;;9.93;5.65;;;16.60;57.30;;;;;;4972496;28;20082;-78
2022/05/03 10:06:25;;;;;;;8.07;5.05;;;16.60;57.40;;;;;;4972499;28;20449;-79
2022/05/03 10:08:52;;;;;;;8.15;5.65;;;16.80;57.70;;;;;;4972517;28;20350;-80
2022/05/03 10:11:18;;;;;;;8.35;5.53;;;16.70;56.80;;;;;;4972852;28;20023;-79
2022/05/03 10:13:45;;;;;;;12.93;6.03;;;16.70;56.50;;;;;;4972658;28;20363;-79
2022/05/03 10:21:50;;;;;;;6.40;4.80;;;17.00;56.50;;;;;;4973630;28;20078;-80
2022/05/03 10:24:16;;;;;;;7.15;5.30;;;17.10;55.70;;;;;;4972210;28;20027;-79
2022/05/03 10:27:05;;;;;;;9.13;5.25;;;17.20;55.50;;;;;;4988128;28;20088;-79
2022/05/03 10:29:34;;;;;;;7.50;5.32;;;17.30;55.50;;;;;;4972374;28;20050;-79
2022/05/03 10:32:06;;;;;;;7.57;4.53;;;17.50;54.90;;;;;;4972568;28;20038;-79
2022/05/03 10:35:03;;;;;;;6.57;4.68;;;17.60;53.80;;;;;;4972895;28;20121;-79
2022/05/03 10:37:29;;;;;;;7.47;6.00;;;17.70;52.50;;;;;;4972449;28;20447;-79
2022/05/03 10:39:57;;;;;;;4.60;3.88;;;17.70;51.10;;;;;;4972702;28;20030;-78
2022/05/03 10:42:32;;;;;;;7.38;4.85;;;17.80;50.50;;;;;;4972620;28;20031;-79
2022/05/03 10:45:06;;;;;;;6.93;4.57;;;18.00;50.10;;;;;;4972331;28;20034;-79
2022/05/03 10:47:54;;;;;;;9.80;5.20;;;18.00;49.90;;;;;;4971482;28;20152;-80
2022/05/03 10:50:20;;;;;;;8.10;4.50;;;18.10;48.30;;;;;;4971807;28;20041;-80
2022/05/03 10:53:07;;;;;;;7.35;5.53;;;18.00;45.10;;;;;;4971939;28;20023;-79
2022/05/03 10:55:59;;;;;;;7.38;5.13;;;17.90;50.30;;;;;;4972236;28;20078;-82
2022/05/03 10:58:27;;;;;;;7.93;5.25;;;17.70;54.20;;;;;;4971645;28;20035;-80
2022/05/03 11:01:20;;;;;;;7.38;4.95;;;17.50;54.10;;;;;;4972999;28;20031;-79
2022/05/03 11:03:48;;;;;;;5.45;4.68;;;17.30;56.60;;;;;;4972339;28;20050;-80
2022/05/03 11:06:18;;;;;;;5.68;4.45;;;17.00;58.60;;;;;;4972262;28;20030;-78
2022/05/03 11:09:08;;;;;;;7.85;3.80;;;16.80;59.20;;;;;;4972174;28;20089;-79
2022/05/03 11:11:43;;;;;;;6.25;4.30;;;16.80;59.80;;;;;;4971986;28;20027;-81
2022/05/03 11:14:21;;;;;;;4.75;4.20;;;16.70;60.60;;;;;;4972041;28;20113;-79
2022/05/03 11:17:05;;;;;;;9.27;4.60;;;16.60;60.30;;;;;;4972096;28;20035;-79
2022/05/03 11:19:33;;;;;;;6.38;4.35;;;16.60;60.40;;;;;;4971717;28;20485;-78
2022/05/03 11:21:59;;;;;;;6.03;4.28;;;16.50;60.60;;;;;;4972202;28;20056;-79
2022/05/03 11:24:32;;;;;;;6.07;4.85;;;16.60;61.20;;;;;;4972021;28;20358;-78
2022/05/03 11:27:05;;;;;;;7.13;4.95;;;16.60;61.20;;;;;;4971928;28;20393;-80
2022/05/03 11:29:35;;;;;;;5.90;4.43;;;16.60;61.60;;;;;;4990284;28;20633;-78
2022/05/03 11:32:04;;;;;;;8.23;4.88;;;16.60;62.70;;;;;;4975497;28;20385;-78
2022/05/03 11:34:31;;;;;;;5.00;4.50;;;16.60;62.50;;;;;;4975307;28;20049;-77
2022/05/03 11:36:58;;;;;;;6.00;4.20;;;16.60;62.10;;;;;;4975039;28;20027;-78
2022/05/03 11:39:24;;;;;;;5.63;4.10;;;16.60;61.80;;;;;;4975172;28;20567;-78
2022/05/03 11:41:50;;;;;;;6.25;3.83;;;16.60;61.00;;;;;;4976314;28;20038;-76
2022/05/03 11:44:16;;;;;;;8.15;3.63;;;16.40;60.60;;;;;;4975298;28;20027;-76
2022/05/03 11:46:45;;;;;;;4.78;3.70;;;16.20;59.00;;;;;;4975393;28;20049;-76
2022/05/03 11:49:13;;;;;;;5.63;3.40;;;16.10;59.00;;;;;;4975262;28;20504;-76
2022/05/03 11:57:27;;;;;;;5.30;3.28;;;15.60;62.20;;;;;;4976665;28;20073;-76
2022/05/03 11:59:56;;;;;;;8.23;3.60;;;15.50;61.90;;;;;;4975426;28;20070;-76
2022/05/03 12:02:34;;;;;;;3.78;2.80;;;15.30;60.90;;;;;;4991750;28;20027;-76
2022/05/03 12:05:16;;;;;;;6.65;2.83;;;15.20;59.70;;;;;;4976655;28;20053;-77
2022/05/03 12:07:49;;;;;;;3.22;2.22;;;15.30;58.00;;;;;;4976804;28;20033;-77
2022/05/03 12:10:44;;;;;;;5.32;2.20;;;15.40;57.20;;;;;;4975343;28;20027;-77
2022/05/03 12:13:16;;;;;;;7.20;2.00;;;15.30;59.20;;;;;;4963431;28;20039;-78
2022/05/03 12:15:45;;;;;;;3.72;1.83;;;15.20;60.00;;;;;;4975428;28;20053;-78
2022/05/03 12:18:18;;;;;;;1.83;1.45;;;15.30;58.00;;;;;;4975384;28;20073;-78
2022/05/03 12:20:57;;;;;;;2.42;1.30;;;15.60;53.90;;;;;;4975954;28;20026;-77
2022/05/03 12:23:36;;;;;;;2.70;1.48;;;15.90;51.40;;;;;;4975285;28;20055;-77
2022/05/03 12:26:16;;;;;;;9.45;2.65;;;16.20;56.30;;;;;;4975268;28;20130;-77
2022/05/03 12:28:58;;;;;;;5.05;2.10;;;15.80;65.80;;;;;;4974794;28;20027;-77
2022/05/03 12:31:35;;;;;;;6.78;2.13;;;15.60;65.60;;;;;;4974602;28;20027;-77
2022/05/03 12:34:02;;;;;;;3.70;2.30;;;15.30;67.20;;;;;;4975074;28;20035;-77
2022/05/03 12:36:42;;;;;;;5.05;2.72;;;15.40;66.80;;;;;;4975049;28;20058;-77
2022/05/03 12:39:19;;;;;;;4.82;2.72;;;15.60;67.60;;;;;;4975703;28;20517;-77
2022/05/03 12:42:02;;;;;;;4.60;2.85;;;15.70;67.70;;;;;;4973855;28;20023;-77
2022/05/03 12:44:29;;;;;;;8.70;3.58;;;15.90;66.20;;;;;;4974535;28;20036;-77
2022/05/03 12:47:08;;;;;;;5.80;2.60;;;16.10;65.20;;;;;;4974544;28;20389;-80
2022/05/03 12:49:34;;;;;;;5.15;2.20;;;16.10;63.20;;;;;;4974152;28;20018;-78
2022/05/03 12:52:01;;;;;;;5.93;2.28;;;15.90;61.10;;;;;;4974538;28;20605;-79
2022/05/03 12:54:26;;;;;;;6.50;2.60;;;15.80;60.40;;;;;;4974301;28;20022;-79
2022/05/03 12:59:36;;;;;;;4.63;2.50;;;15.90;60.20;;;;;;4975343;28;20093;-79
2022/05/03 13:02:03;;;;;;;3.33;2.20;;;16.20;62.90;;;;;;4975206;28;20102;-79
2022/05/03 13:04:30;;;;;;;6.88;2.58;;;16.20;63.60;;;;;;4974093;28;20041;-79
2022/05/03 13:07:00;;;;;;;4.97;2.60;;;16.20;64.00;;;;;;4974215;28;20027;-79
2022/05/03 13:09:27;;;;;;;5.15;2.78;;;16.30;64.90;;;;;;4974078;28;20477;-79
2022/05/03 13:11:53;;;;;;;7.38;3.28;;;16.20;65.70;;;;;;4974085;28;20481;-80
2022/05/03 13:14:19;;;;;;;7.05;2.55;;;16.10;66.90;;;;;;4974132;28;20027;-79
2022/05/03 13:16:45;;;;;;;7.18;2.53;;;16.00;66.50;;;;;;4973897;28;20065;-79
2022/05/03 13:19:13;;;;;;;6.82;2.63;;;16.20;65.00;;;;;;4973735;28;20039;-79
2022/05/03 13:21:41;;;;;;;6.07;2.47;;;16.50;64.80;;;;;;4973538;28;20034;-79
2022/05/03 13:24:07;;;;;;;4.72;2.72;;;16.70;64.20;;;;;;4973864;28;20058;-79
2022/05/03 13:26:34;;;;;;;5.93;2.60;;;16.80;63.60;;;;;;4973484;28;20508;-79
2022/05/03 13:29:01;;;;;;;5.55;2.42;;;16.90;62.10;;;;;;4973699;28;20042;-80
2022/05/03 13:31:28;;;;;;;6.68;2.80;;;16.90;61.70;;;;;;4973435;28;20070;-79
2022/05/03 13:33:54;;;;;;;5.35;2.53;;;17.20;62.40;;;;;;4973175;28;20027;-79
2022/05/03 13:41:48;;;;;;;7.40;2.35;;;18.00;59.70;;;;;;4974832;28;20393;-78
2022/05/03 13:44:14;;;;;;;4.32;1.83;;;18.40;58.10;;;;;;4974598;28;20031;-79
2022/05/03 13:46:39;;;;;;;3.72;2.05;;;18.70;56.30;;;;;;4973451;28;20030;-81